sensor_id;sensor_type;location;lat;lon;timestamp;pressure;altitude;pressure_sealevel;temperature;humidity
28432;BME280;15664;51.302;7.744;2023-02-02T00:01:55;83813.00;;;-146.98;100.00
28432;BME280;15664;51.302;7.744;2023-02-02T00:04:30;83786.50;;;-146.98;100.00
28432;BME280;15664;51.302;7.744;2023-02-02T00:06:56;83837.44;;;-146.98;100.00
28432;BME280;15664;51.302;7.744;2023-02-02T00:09:25;83815.03;;;-146.98;100.00
28432;BME280;15664;51.302;7.744;2023-02-02T00:11:54;83798.75;;;-146.98;100.00
28432;BME280;15664;51.302;7.744;2023-02-02T00:14:20;83764.13;;;-146.98;100.00
28432;BME280;15664;51.302;7.744;2023-02-02T00:17:04;83825.22;;;-146.98;100.00
28432;BME280;15664;51.302;7.744;2023-02-02T00:19:29;83823.19;;;-146.98;100.00
28432;BME280;15664;51.302;7.744;2023-02-02T00:21:56;83782.44;;;-146.98;100.00
28432;BME280;15664;51.302;7.744;2023-02-02T00:24:22;83774.28;;;-146.98;100.00
28432;BME280;15664;51.302;7.744;2023-02-02T00:26:51;83776.34;;;-146.98;100.00
28432;BME280;15664;51.302;7.744;2023-02-02T00:29:23;83780.41;;;-146.98;100.00
28432;BME280;15664;51.302;7.744;2023-02-02T00:31:49;83741.72;;;-146.98;100.00
28432;BME280;15664;51.302;7.744;2023-02-02T00:34:15;83772.25;;;-146.98;100.00
28432;BME280;15664;51.302;7.744;2023-02-02T00:36:42;83768.19;;;-146.98;100.00
28432;BME280;15664;51.302;7.744;2023-02-02T00:39:16;83780.41;;;-146.98;100.00
28432;BME280;15664;51.302;7.744;2023-02-02T00:41:43;83776.34;;;-146.98;100.00
28432;BME280;15664;51.302;7.744;2023-02-02T00:44:09;83743.75;;;-146.98;100.00
28432;BME280;15664;51.302;7.744;2023-02-02T00:46:53;83755.97;;;-146.98;100.00
28432;BME280;15664;51.302;7.744;2023-02-02T00:49:19;83755.97;;;-146.98;100.00
28432;BME280;15664;51.302;7.744;2023-02-02T00:51:45;83786.50;;;-146.98;100.00
28432;BME280;15664;51.302;7.744;2023-02-02T00:54:10;83784.47;;;-146.98;100.00
28432;BME280;15664;51.302;7.744;2023-02-02T00:56:35;83821.13;;;-146.98;100.00
28432;BME280;15664;51.302;7.744;2023-02-02T00:59:01;83758.00;;;-146.98;100.00
28432;BME280;15664;51.302;7.744;2023-02-02T01:01:27;83747.81;;;-146.98;100.00
28432;BME280;15664;51.302;7.744;2023-02-02T01:03:53;83745.78;;;-146.98;100.00
28432;BME280;15664;51.302;7.744;2023-02-02T01:06:19;83727.44;;;-146.98;100.00
28432;BME280;15664;51.302;7.744;2023-02-02T01:08:45;83743.75;;;-146.98;100.00
28432;BME280;15664;51.302;7.744;2023-02-02T01:11:10;83751.91;;;-146.98;100.00
28432;BME280;15664;51.302;7.744;2023-02-02T01:13:36;83721.34;;;-146.98;100.00
28432;BME280;15664;51.302;7.744;2023-02-02T01:16:03;83751.91;;;-146.98;100.00
28432;BME280;15664;51.302;7.744;2023-02-02T01:18:29;83735.59;;;-146.98;100.00
28432;BME280;15664;51.302;7.744;2023-02-02T01:21:07;83737.63;;;-146.98;100.00
28432;BME280;15664;51.302;7.744;2023-02-02T01:23:35;83737.63;;;-146.98;100.00
28432;BME280;15664;51.302;7.744;2023-02-02T01:26:03;83741.72;;;-146.98;100.00
28432;BME280;15664;51.302;7.744;2023-02-02T01:28:30;83760.03;;;-146.98;100.00
28432;BME280;15664;51.302;7.744;2023-02-02T01:30:56;83727.44;;;-146.98;100.00
28432;BME280;15664;51.302;7.744;2023-02-02T01:33:23;83768.19;;;-146.98;100.00
28432;BME280;15664;51.302;7.744;2023-02-02T01:35:53;83776.34;;;-146.98;100.00
28432;BME280;15664;51.302;7.744;2023-02-02T01:38:22;83770.22;;;-146.98;100.00
28432;BME280;15664;51.302;7.744;2023-02-02T01:40:53;83751.91;;;-146.98;100.00
28432;BME280;15664;51.302;7.744;2023-02-02T01:43:25;83735.59;;;-146.98;100.00
28432;BME280;15664;51.302;7.744;2023-02-02T01:45:53;83747.81;;;-146.98;100.00
28432;BME280;15664;51.302;7.744;2023-02-02T01:48:27;83721.34;;;-146.98;100.00
28432;BME280;15664;51.302;7.744;2023-02-02T01:51:00;83817.06;;;-146.98;100.00
28432;BME280;15664;51.302;7.744;2023-02-02T01:53:27;83694.88;;;-146.98;100.00
28432;BME280;15664;51.302;7.744;2023-02-02T01:55:54;83688.75;;;-146.98;100.00
28432;BME280;15664;51.302;7.744;2023-02-02T01:58:29;83731.53;;;-146.98;100.00
28432;BME280;15664;51.302;7.744;2023-02-02T02:00:56;83802.81;;;-146.98;100.00
28432;BME280;15664;51.302;7.744;2023-02-02T02:03:25;83713.19;;;-146.98;100.00
28432;BME280;15664;51.302;7.744;2023-02-02T02:06:09;83723.38;;;-146.98;100.00
28432;BME280;15664;51.302;7.744;2023-02-02T02:08:43;83715.22;;;-146.98;100.00
28432;BME280;15664;51.302;7.744;2023-02-02T02:11:12;83686.72;;;-146.98;100.00
28432;BME280;15664;51.302;7.744;2023-02-02T02:13:38;83639.88;;;-146.98;100.00
28432;BME280;15664;51.302;7.744;2023-02-02T02:16:45;83666.34;;;-146.98;100.00
28432;BME280;15664;51.302;7.744;2023-02-02T02:23:10;83731.53;;;-146.98;100.00
28432;BME280;15664;51.302;7.744;2023-02-02T02:26:32;83658.19;;;-146.98;100.00
28432;BME280;15664;51.302;7.744;2023-02-02T02:40:07;83668.38;;;-146.98;100.00
28432;BME280;15664;51.302;7.744;2023-02-02T02:42:38;83650.06;;;-146.98;100.00
28432;BME280;15664;51.302;7.744;2023-02-02T02:45:09;83650.06;;;-146.98;100.00
28432;BME280;15664;51.302;7.744;2023-02-02T02:47:36;83658.19;;;-146.98;100.00
28432;BME280;15664;51.302;7.744;2023-02-02T02:50:04;83674.50;;;-146.98;100.00
28432;BME280;15664;51.302;7.744;2023-02-02T02:52:31;83715.22;;;-146.98;100.00
28432;BME280;15664;51.302;7.744;2023-02-02T02:54:58;83682.66;;;-146.98;100.00
28432;BME280;15664;51.302;7.744;2023-02-02T03:00:51;83731.53;;;-146.98;100.00
28432;BME280;15664;51.302;7.744;2023-02-02T03:03:28;83715.22;;;-146.98;100.00
28432;BME280;15664;51.302;7.744;2023-02-02T03:08:54;83674.50;;;-146.98;100.00
28432;BME280;15664;51.302;7.744;2023-02-02T03:11:21;83637.84;;;-146.98;100.00
28432;BME280;15664;51.302;7.744;2023-02-02T03:13:47;83674.50;;;-146.98;100.00
28432;BME280;15664;51.302;7.744;2023-02-02T03:16:14;83641.91;;;-146.98;100.00
28432;BME280;15664;51.302;7.744;2023-02-02T03:18:40;83625.63;;;-146.98;100.00
28432;BME280;15664;51.302;7.744;2023-02-02T03:21:09;83662.28;;;-146.98;100.00
28432;BME280;15664;51.302;7.744;2023-02-02T03:23:34;83692.81;;;-146.98;100.00
28432;BME280;15664;51.302;7.744;2023-02-02T03:26:00;83656.16;;;-146.98;100.00
28432;BME280;15664;51.302;7.744;2023-02-02T03:28:26;83648.03;;;-146.98;100.00
28432;BME280;15664;51.302;7.744;2023-02-02T03:30:53;83707.09;;;-146.98;100.00
28432;BME280;15664;51.302;7.744;2023-02-02T03:33:19;83678.56;;;-146.98;100.00
28432;BME280;15664;51.302;7.744;2023-02-02T03:35:45;83662.28;;;-146.98;100.00
28432;BME280;15664;51.302;7.744;2023-02-02T03:38:10;83637.84;;;-146.98;100.00
28432;BME280;15664;51.302;7.744;2023-02-02T03:40:38;83666.34;;;-146.98;100.00
28432;BME280;15664;51.302;7.744;2023-02-02T03:43:03;83641.91;;;-146.98;100.00
28432;BME280;15664;51.302;7.744;2023-02-02T03:45:29;83694.88;;;-146.98;100.00
28432;BME280;15664;51.302;7.744;2023-02-02T03:47:56;83658.19;;;-146.98;100.00
28432;BME280;15664;51.302;7.744;2023-02-02T03:50:22;83692.81;;;-146.98;100.00
28432;BME280;15664;51.302;7.744;2023-02-02T03:52:49;83678.56;;;-146.98;100.00
28432;BME280;15664;51.302;7.744;2023-02-02T03:55:15;83694.88;;;-146.98;100.00
28432;BME280;15664;51.302;7.744;2023-02-02T03:57:41;83717.28;;;-146.98;100.00
28432;BME280;15664;51.302;7.744;2023-02-02T04:00:07;83723.38;;;-146.98;100.00
28432;BME280;15664;51.302;7.744;2023-02-02T04:02:37;83698.94;;;-146.98;100.00
28432;BME280;15664;51.302;7.744;2023-02-02T04:05:03;83694.88;;;-146.98;100.00
28432;BME280;15664;51.302;7.744;2023-02-02T04:07:28;83676.53;;;-146.98;100.00
28432;BME280;15664;51.302;7.744;2023-02-02T04:09:53;83650.06;;;-146.98;100.00
28432;BME280;15664;51.302;7.744;2023-02-02T04:12:19;83668.38;;;-146.98;100.00
28432;BME280;15664;51.302;7.744;2023-02-02T04:14:45;83719.31;;;-146.98;100.00
28432;BME280;15664;51.302;7.744;2023-02-02T04:17:10;83654.13;;;-146.98;100.00
28432;BME280;15664;51.302;7.744;2023-02-02T04:19:36;83670.44;;;-146.98;100.00
28432;BME280;15664;51.302;7.744;2023-02-02T04:22:01;83662.28;;;-146.98;100.00
28432;BME280;15664;51.302;7.744;2023-02-02T04:24:27;83641.91;;;-146.98;100.00
28432;BME280;15664;51.302;7.744;2023-02-02T04:26:53;83682.66;;;-146.98;100.00
28432;BME280;15664;51.302;7.744;2023-02-02T04:29:19;83676.53;;;-146.98;100.00
28432;BME280;15664;51.302;7.744;2023-02-02T04:31:45;83648.03;;;-146.98;100.00
28432;BME280;15664;51.302;7.744;2023-02-02T04:34:10;83690.78;;;-146.98;100.00
28432;BME280;15664;51.302;7.744;2023-02-02T04:36:36;83652.09;;;-146.98;100.00
28432;BME280;15664;51.302;7.744;2023-02-02T04:39:02;83623.56;;;-146.98;100.00
28432;BME280;15664;51.302;7.744;2023-02-02T04:41:28;83654.13;;;-146.98;100.00
28432;BME280;15664;51.302;7.744;2023-02-02T04:43:53;83650.06;;;-146.98;100.00
28432;BME280;15664;51.302;7.744;2023-02-02T04:46:19;83670.44;;;-146.98;100.00
28432;BME280;15664;51.302;7.744;2023-02-02T04:48:47;83641.91;;;-146.98;100.00
28432;BME280;15664;51.302;7.744;2023-02-02T04:51:13;83650.06;;;-146.98;100.00
28432;BME280;15664;51.302;7.744;2023-02-02T04:53:40;83617.47;;;-146.98;100.00
28432;BME280;15664;51.302;7.744;2023-02-02T04:56:12;83650.06;;;-146.98;100.00
28432;BME280;15664;51.302;7.744;2023-02-02T04:58:38;83658.19;;;-146.98;100.00
28432;BME280;15664;51.302;7.744;2023-02-02T05:01:17;83676.53;;;-146.98;100.00
28432;BME280;15664;51.302;7.744;2023-02-02T05:03:43;83643.94;;;-146.98;100.00
28432;BME280;15664;51.302;7.744;2023-02-02T05:06:09;83607.28;;;-146.98;100.00
28432;BME280;15664;51.302;7.744;2023-02-02T05:08:35;83670.44;;;-146.98;100.00
28432;BME280;15664;51.302;7.744;2023-02-02T05:11:09;83645.97;;;-146.98;100.00
28432;BME280;15664;51.302;7.744;2023-02-02T05:13:35;83639.88;;;-146.98;100.00
28432;BME280;15664;51.302;7.744;2023-02-02T05:16:01;83662.28;;;-146.98;100.00
28432;BME280;15664;51.302;7.744;2023-02-02T05:18:26;83629.69;;;-146.98;100.00
28432;BME280;15664;51.302;7.744;2023-02-02T05:20:53;83676.53;;;-146.98;100.00
28432;BME280;15664;51.302;7.744;2023-02-02T05:23:19;83639.88;;;-146.98;100.00
28432;BME280;15664;51.302;7.744;2023-02-02T05:25:50;83658.19;;;-146.98;100.00
28432;BME280;15664;51.302;7.744;2023-02-02T05:28:16;83625.63;;;-146.98;100.00
28432;BME280;15664;51.302;7.744;2023-02-02T05:30:42;83617.47;;;-146.98;100.00
28432;BME280;15664;51.302;7.744;2023-02-02T05:33:07;83613.41;;;-146.98;100.00
28432;BME280;15664;51.302;7.744;2023-02-02T05:35:32;83609.31;;;-146.98;100.00
28432;BME280;15664;51.302;7.744;2023-02-02T05:37:58;83650.06;;;-146.98;100.00
28432;BME280;15664;51.302;7.744;2023-02-02T05:40:24;83674.50;;;-146.98;100.00
28432;BME280;15664;51.302;7.744;2023-02-02T05:42:49;83666.34;;;-146.98;100.00
28432;BME280;15664;51.302;7.744;2023-02-02T05:45:15;83621.53;;;-146.98;100.00
28432;BME280;15664;51.302;7.744;2023-02-02T05:47:40;83601.19;;;-146.98;100.00
28432;BME280;15664;51.302;7.744;2023-02-02T05:50:06;83607.28;;;-146.98;100.00
28432;BME280;15664;51.302;7.744;2023-02-02T05:52:33;83666.34;;;-146.98;100.00
28432;BME280;15664;51.302;7.744;2023-02-02T05:55:00;83654.13;;;-146.98;100.00
28432;BME280;15664;51.302;7.744;2023-02-02T05:57:25;83603.22;;;-146.98;100.00
28432;BME280;15664;51.302;7.744;2023-02-02T05:59:52;83645.97;;;-146.98;100.00
28432;BME280;15664;51.302;7.744;2023-02-02T06:02:18;83584.88;;;-146.98;100.00
28432;BME280;15664;51.302;7.744;2023-02-02T06:04:44;83609.31;;;-146.98;100.00
28432;BME280;15664;51.302;7.744;2023-02-02T06:07:09;83568.59;;;-146.98;100.00
28432;BME280;15664;51.302;7.744;2023-02-02T06:09:35;83625.63;;;-146.98;100.00
28432;BME280;15664;51.302;7.744;2023-02-02T06:12:00;83621.53;;;-146.98;100.00
28432;BME280;15664;51.302;7.744;2023-02-02T06:14:26;83588.97;;;-146.98;100.00
28432;BME280;15664;51.302;7.744;2023-02-02T06:16:52;83629.69;;;-146.98;100.00
28432;BME280;15664;51.302;7.744;2023-02-02T06:19:18;83611.38;;;-146.98;100.00
28432;BME280;15664;51.302;7.744;2023-02-02T06:21:43;83609.31;;;-146.98;100.00
28432;BME280;15664;51.302;7.744;2023-02-02T06:24:09;83588.97;;;-146.98;100.00
28432;BME280;15664;51.302;7.744;2023-02-02T06:26:35;83662.28;;;-146.98;100.00
28432;BME280;15664;51.302;7.744;2023-02-02T06:29:00;83619.50;;;-146.98;100.00
28432;BME280;15664;51.302;7.744;2023-02-02T06:31:26;83574.69;;;-146.98;100.00
28432;BME280;15664;51.302;7.744;2023-02-02T06:33:54;83625.63;;;-146.98;100.00
28432;BME280;15664;51.302;7.744;2023-02-02T06:36:21;83582.84;;;-146.98;100.00
28432;BME280;15664;51.302;7.744;2023-02-02T06:38:53;83591.00;;;-146.98;100.00
28432;BME280;15664;51.302;7.744;2023-02-02T06:41:19;83593.03;;;-146.98;100.00
28432;BME280;15664;51.302;7.744;2023-02-02T06:43:49;83637.84;;;-146.98;100.00
28432;BME280;15664;51.302;7.744;2023-02-02T06:46:15;83609.31;;;-146.98;100.00
28432;BME280;15664;51.302;7.744;2023-02-02T06:48:41;83615.44;;;-146.98;100.00
28432;BME280;15664;51.302;7.744;2023-02-02T06:51:07;83617.47;;;-146.98;100.00
28432;BME280;15664;51.302;7.744;2023-02-02T06:53:33;83603.22;;;-146.98;100.00
28432;BME280;15664;51.302;7.744;2023-02-02T06:56:02;83605.25;;;-146.98;100.00
28432;BME280;15664;51.302;7.744;2023-02-02T06:58:29;83591.00;;;-146.98;100.00
28432;BME280;15664;51.302;7.744;2023-02-02T07:01:01;83609.31;;;-146.98;100.00
28432;BME280;15664;51.302;7.744;2023-02-02T07:03:28;83621.53;;;-146.98;100.00
28432;BME280;15664;51.302;7.744;2023-02-02T07:05:54;83593.03;;;-146.98;100.00
28432;BME280;15664;51.302;7.744;2023-02-02T07:08:19;83597.09;;;-146.98;100.00
28432;BME280;15664;51.302;7.744;2023-02-02T07:10:45;83593.03;;;-146.98;100.00
28432;BME280;15664;51.302;7.744;2023-02-02T07:13:11;83631.72;;;-146.98;100.00
28432;BME280;15664;51.302;7.744;2023-02-02T07:15:38;83625.63;;;-146.98;100.00
28432;BME280;15664;51.302;7.744;2023-02-02T07:18:03;83591.00;;;-146.98;100.00
28432;BME280;15664;51.302;7.744;2023-02-02T07:20:29;83560.44;;;-146.98;100.00
28432;BME280;15664;51.302;7.744;2023-02-02T07:22:55;83554.34;;;-146.98;100.00
28432;BME280;15664;51.302;7.744;2023-02-02T07:25:22;83645.97;;;-146.98;100.00
28432;BME280;15664;51.302;7.744;2023-02-02T07:27:52;83582.84;;;-146.98;100.00
28432;BME280;15664;51.302;7.744;2023-02-02T07:30:18;83613.41;;;-146.98;100.00
28432;BME280;15664;51.302;7.744;2023-02-02T07:32:48;83627.66;;;-146.98;100.00
28432;BME280;15664;51.302;7.744;2023-02-02T07:35:14;83584.88;;;-146.98;100.00
28432;BME280;15664;51.302;7.744;2023-02-02T07:37:40;83635.81;;;-146.98;100.00
28432;BME280;15664;51.302;7.744;2023-02-02T07:40:06;83607.28;;;-146.98;100.00
28432;BME280;15664;51.302;7.744;2023-02-02T07:42:33;83566.56;;;-146.98;100.00
28432;BME280;15664;51.302;7.744;2023-02-02T07:44:58;83574.69;;;-146.98;100.00
28432;BME280;15664;51.302;7.744;2023-02-02T07:47:24;83629.69;;;-146.98;100.00
28432;BME280;15664;51.302;7.744;2023-02-02T07:49:49;83613.41;;;-146.98;100.00
28432;BME280;15664;51.302;7.744;2023-02-02T07:52:15;83572.66;;;-146.98;100.00
28432;BME280;15664;51.302;7.744;2023-02-02T07:54:41;83623.56;;;-146.98;100.00
28432;BME280;15664;51.302;7.744;2023-02-02T07:57:06;83566.56;;;-146.98;100.00
28432;BME280;15664;51.302;7.744;2023-02-02T07:59:32;83588.97;;;-146.98;100.00
28432;BME280;15664;51.302;7.744;2023-02-02T08:01:58;83597.09;;;-146.98;100.00
28432;BME280;15664;51.302;7.744;2023-02-02T08:04:23;83584.88;;;-146.98;100.00
28432;BME280;15664;51.302;7.744;2023-02-02T08:06:49;83601.19;;;-146.98;100.00
28432;BME280;15664;51.302;7.744;2023-02-02T08:09:14;83591.00;;;-146.98;100.00
28432;BME280;15664;51.302;7.744;2023-02-02T08:11:40;83613.41;;;-146.98;100.00
28432;BME280;15664;51.302;7.744;2023-02-02T08:14:06;83576.75;;;-146.98;100.00
28432;BME280;15664;51.302;7.744;2023-02-02T08:16:32;83609.31;;;-146.98;100.00
28432;BME280;15664;51.302;7.744;2023-02-02T08:18:58;83623.56;;;-146.98;100.00
28432;BME280;15664;51.302;7.744;2023-02-02T08:21:25;83613.41;;;-146.98;100.00
28432;BME280;15664;51.302;7.744;2023-02-02T08:23:51;83631.72;;;-146.98;100.00
28432;BME280;15664;51.302;7.744;2023-02-02T08:26:19;83584.88;;;-146.98;100.00
28432;BME280;15664;51.302;7.744;2023-02-02T08:28:50;83613.41;;;-146.98;100.00
28432;BME280;15664;51.302;7.744;2023-02-02T08:31:17;83584.88;;;-146.98;100.00
28432;BME280;15664;51.302;7.744;2023-02-02T08:33:43;83597.09;;;-146.98;100.00
28432;BME280;15664;51.302;7.744;2023-02-02T08:36:11;83607.28;;;-146.98;100.00
28432;BME280;15664;51.302;7.744;2023-02-02T08:38:37;83588.97;;;-146.98;100.00
28432;BME280;15664;51.302;7.744;2023-02-02T08:41:04;83597.09;;;-146.98;100.00
28432;BME280;15664;51.302;7.744;2023-02-02T08:43:31;83591.00;;;-146.98;100.00
28432;BME280;15664;51.302;7.744;2023-02-02T08:45:56;83625.63;;;-146.98;100.00
28432;BME280;15664;51.302;7.744;2023-02-02T08:48:22;83576.75;;;-146.98;100.00
28432;BME280;15664;51.302;7.744;2023-02-02T08:50:54;83605.25;;;-146.98;100.00
28432;BME280;15664;51.302;7.744;2023-02-02T08:53:21;83584.88;;;-146.98;100.00
28432;BME280;15664;51.302;7.744;2023-02-02T08:55:47;83611.38;;;-146.98;100.00
28432;BME280;15664;51.302;7.744;2023-02-02T08:58:13;83556.38;;;-146.98;100.00
28432;BME280;15664;51.302;7.744;2023-02-02T09:00:39;83591.00;;;-146.98;100.00
28432;BME280;15664;51.302;7.744;2023-02-02T09:03:05;83617.47;;;-146.98;100.00
28432;BME280;15664;51.302;7.744;2023-02-02T09:05:30;83597.09;;;-146.98;100.00
28432;BME280;15664;51.302;7.744;2023-02-02T09:07:56;83576.75;;;-146.98;100.00
28432;BME280;15664;51.302;7.744;2023-02-02T09:10:22;83625.63;;;-146.98;100.00
28432;BME280;15664;51.302;7.744;2023-02-02T09:12:48;83548.22;;;-146.98;100.00
28432;BME280;15664;51.302;7.744;2023-02-02T09:15:13;83633.75;;;-146.98;100.00
28432;BME280;15664;51.302;7.744;2023-02-02T09:17:39;83641.91;;;-146.98;100.00
28432;BME280;15664;51.302;7.744;2023-02-02T09:20:05;83582.84;;;-146.98;100.00
28432;BME280;15664;51.302;7.744;2023-02-02T09:22:31;83593.03;;;-146.98;100.00
28432;BME280;15664;51.302;7.744;2023-02-02T09:24:57;83558.41;;;-146.98;100.00
28432;BME280;15664;51.302;7.744;2023-02-02T09:27:22;83529.91;;;-146.98;100.00
28432;BME280;15664;51.302;7.744;2023-02-02T09:29:48;83597.09;;;-146.98;100.00
28432;BME280;15664;51.302;7.744;2023-02-02T09:32:14;83562.47;;;-146.98;100.00
28432;BME280;15664;51.302;7.744;2023-02-02T09:34:39;83591.00;;;-146.98;100.00
28432;BME280;15664;51.302;7.744;2023-02-02T09:37:05;83591.00;;;-146.98;100.00
28432;BME280;15664;51.302;7.744;2023-02-02T09:39:30;83603.22;;;-146.98;100.00
28432;BME280;15664;51.302;7.744;2023-02-02T09:42:08;83619.50;;;-146.98;100.00
28432;BME280;15664;51.302;7.744;2023-02-02T09:44:58;83617.47;;;-146.98;100.00
28432;BME280;15664;51.302;7.744;2023-02-02T09:52:58;83586.91;;;-146.98;100.00
28432;BME280;15664;51.302;7.744;2023-02-02T09:55:37;83584.88;;;-146.98;100.00
28432;BME280;15664;51.302;7.744;2023-02-02T09:58:06;83658.19;;;-146.98;100.00
28432;BME280;15664;51.302;7.744;2023-02-02T10:00:40;83605.25;;;-146.98;100.00
28432;BME280;15664;51.302;7.744;2023-02-02T10:03:33;83658.19;;;-146.98;100.00
28432;BME280;15664;51.302;7.744;2023-02-02T10:08:54;83568.59;;;-146.98;100.00
28432;BME280;15664;51.302;7.744;2023-02-02T10:14:02;83593.03;;;-146.98;100.00
28432;BME280;15664;51.302;7.744;2023-02-02T10:16:32;83560.44;;;-146.98;100.00
28432;BME280;15664;51.302;7.744;2023-02-02T10:19:02;83572.66;;;-146.98;100.00
28432;BME280;15664;51.302;7.744;2023-02-02T10:24:15;83629.69;;;-146.98;100.00
28432;BME280;15664;51.302;7.744;2023-02-02T10:26:47;83613.41;;;-146.98;100.00
28432;BME280;15664;51.302;7.744;2023-02-02T10:34:42;83556.38;;;-146.98;100.00
28432;BME280;15664;51.302;7.744;2023-02-02T10:44:55;83603.22;;;-146.98;100.00
28432;BME280;15664;51.302;7.744;2023-02-02T10:47:25;83568.59;;;-146.98;100.00
28432;BME280;15664;51.302;7.744;2023-02-02T10:50:18;83650.06;;;-146.98;100.00
28432;BME280;15664;51.302;7.744;2023-02-02T10:52:51;83576.75;;;-146.98;100.00
28432;BME280;15664;51.302;7.744;2023-02-02T10:55:31;83568.59;;;-146.98;100.00
28432;BME280;15664;51.302;7.744;2023-02-02T11:00:47;83584.88;;;-146.98;100.00
28432;BME280;15664;51.302;7.744;2023-02-02T11:03:26;83580.81;;;-146.98;100.00
28432;BME280;15664;51.302;7.744;2023-02-02T11:05:52;83574.69;;;-146.98;100.00
28432;BME280;15664;51.302;7.744;2023-02-02T11:08:47;83558.41;;;-146.98;100.00
28432;BME280;15664;51.302;7.744;2023-02-02T11:11:29;83540.06;;;-146.98;100.00
28432;BME280;15664;51.302;7.744;2023-02-02T11:14:14;83588.97;;;-146.98;100.00
28432;BME280;15664;51.302;7.744;2023-02-02T11:16:42;83584.88;;;-146.98;100.00
28432;BME280;15664;51.302;7.744;2023-02-02T11:21:45;83605.25;;;-146.98;100.00
28432;BME280;15664;51.302;7.744;2023-02-02T11:24:28;83560.44;;;-146.98;100.00
28432;BME280;15664;51.302;7.744;2023-02-02T11:26:54;83560.44;;;-146.98;100.00
28432;BME280;15664;51.302;7.744;2023-02-02T11:29:32;83568.59;;;-146.98;100.00
28432;BME280;15664;51.302;7.744;2023-02-02T11:35:22;83527.84;;;-146.98;100.00
28432;BME280;15664;51.302;7.744;2023-02-02T11:37:58;83609.31;;;-146.98;100.00
28432;BME280;15664;51.302;7.744;2023-02-02T11:40:29;83597.09;;;-146.98;100.00
28432;BME280;15664;51.302;7.744;2023-02-02T11:42:58;83601.19;;;-146.98;100.00
28432;BME280;15664;51.302;7.744;2023-02-02T11:45:39;83580.81;;;-146.98;100.00
28432;BME280;15664;51.302;7.744;2023-02-02T11:48:12;83570.63;;;-146.98;100.00
28432;BME280;15664;51.302;7.744;2023-02-02T11:50:44;83552.31;;;-146.98;100.00
28432;BME280;15664;51.302;7.744;2023-02-02T11:53:30;83548.22;;;-146.98;100.00
28432;BME280;15664;51.302;7.744;2023-02-02T11:56:01;83564.53;;;-146.98;100.00
28432;BME280;15664;51.302;7.744;2023-02-02T11:58:42;83564.53;;;-146.98;100.00
28432;BME280;15664;51.302;7.744;2023-02-02T12:01:21;83572.66;;;-146.98;100.00
28432;BME280;15664;51.302;7.744;2023-02-02T12:03:48;83603.22;;;-146.98;100.00
28432;BME280;15664;51.302;7.744;2023-02-02T12:06:24;83580.81;;;-146.98;100.00
28432;BME280;15664;51.302;7.744;2023-02-02T12:08:56;83568.59;;;-146.98;100.00
28432;BME280;15664;51.302;7.744;2023-02-02T12:11:44;83595.06;;;-146.98;100.00
28432;BME280;15664;51.302;7.744;2023-02-02T12:17:39;83597.09;;;-146.98;100.00
28432;BME280;15664;51.302;7.744;2023-02-02T12:23:07;83629.69;;;-146.98;100.00
28432;BME280;15664;51.302;7.744;2023-02-02T12:25:55;83564.53;;;-146.98;100.00
28432;BME280;15664;51.302;7.744;2023-02-02T12:28:47;83582.84;;;-146.98;100.00
28432;BME280;15664;51.302;7.744;2023-02-02T12:34:28;83554.34;;;-146.98;100.00
28432;BME280;15664;51.302;7.744;2023-02-02T12:40:14;83580.81;;;-146.98;100.00
28432;BME280;15664;51.302;7.744;2023-02-02T12:44:04;83595.06;;;-146.98;100.00
28432;BME280;15664;51.302;7.744;2023-02-02T12:46:15;83540.06;;;-146.98;100.00
28432;BME280;15664;51.302;7.744;2023-02-02T12:54:38;83627.66;;;-146.98;100.00
28432;BME280;15664;51.302;7.744;2023-02-02T13:02:35;83536.00;;;-146.98;100.00
28432;BME280;15664;51.302;7.744;2023-02-02T13:10:38;83601.19;;;-146.98;100.00
28432;BME280;15664;51.302;7.744;2023-02-02T13:13:13;83584.88;;;-146.98;100.00
28432;BME280;15664;51.302;7.744;2023-02-02T13:15:44;83588.97;;;-146.98;100.00
28432;BME280;15664;51.302;7.744;2023-02-02T13:18:22;83591.00;;;-146.98;100.00
28432;BME280;15664;51.302;7.744;2023-02-02T13:23:26;83597.09;;;-146.98;100.00
28432;BME280;15664;51.302;7.744;2023-02-02T13:26:18;83633.75;;;-146.98;100.00
28432;BME280;15664;51.302;7.744;2023-02-02T13:28:56;83639.88;;;-146.98;100.00
28432;BME280;15664;51.302;7.744;2023-02-02T13:31:27;83566.56;;;-146.98;100.00
28432;BME280;15664;51.302;7.744;2023-02-02T13:34:16;83609.31;;;-146.98;100.00
28432;BME280;15664;51.302;7.744;2023-02-02T13:36:53;83572.66;;;-146.98;100.00
28432;BME280;15664;51.302;7.744;2023-02-02T13:39:26;83609.31;;;-146.98;100.00
28432;BME280;15664;51.302;7.744;2023-02-02T13:41:54;83560.44;;;-146.98;100.00
28432;BME280;15664;51.302;7.744;2023-02-02T13:44:28;83584.88;;;-146.98;100.00
28432;BME280;15664;51.302;7.744;2023-02-02T13:49:29;83613.41;;;-146.98;100.00
28432;BME280;15664;51.302;7.744;2023-02-02T13:52:16;83633.75;;;-146.98;100.00
28432;BME280;15664;51.302;7.744;2023-02-02T14:02:48;83556.38;;;-146.98;100.00
28432;BME280;15664;51.302;7.744;2023-02-02T14:07:47;83576.75;;;-146.98;100.00
28432;BME280;15664;51.302;7.744;2023-02-02T14:15:58;83548.22;;;-146.98;100.00
28432;BME280;15664;51.302;7.744;2023-02-02T14:18:51;83576.75;;;-146.98;100.00
28432;BME280;15664;51.302;7.744;2023-02-02T14:29:33;83609.31;;;-146.98;100.00
28432;BME280;15664;51.302;7.744;2023-02-02T14:34:54;83572.66;;;-146.98;100.00
28432;BME280;15664;51.302;7.744;2023-02-02T14:45:39;83619.50;;;-146.98;100.00
28432;BME280;15664;51.302;7.744;2023-02-02T14:50:41;83601.19;;;-146.98;100.00
28432;BME280;15664;51.302;7.744;2023-02-02T14:53:16;83611.38;;;-146.98;100.00